createdAt,value
2018-11-26T00:00:47.568Z,9.30
2018-11-26T00:03:14.224Z,9.30
2018-11-26T00:05:41.559Z,9.10
2018-11-26T00:08:12.584Z,8.60
2018-11-26T00:10:43.682Z,8.40
2018-11-26T00:13:10.826Z,8.70
2018-11-26T00:15:38.564Z,8.90
2018-11-26T00:18:06.346Z,9.20
2018-11-26T00:20:33.082Z,9.40
2018-11-26T00:23:06.424Z,9.40
2018-11-26T00:25:35.578Z,9.40
2018-11-26T00:28:03.039Z,9.30
2018-11-26T00:30:31.900Z,9.20
2018-11-26T00:33:08.488Z,9.30
2018-11-26T00:35:35.192Z,9.10
2018-11-26T00:38:02.876Z,8.90
2018-11-26T00:40:33.793Z,8.90
2018-11-26T00:45:48.395Z,9.20
2018-11-26T00:48:16.081Z,9.10
2018-11-26T00:50:45.100Z,9.20
2018-11-26T00:53:12.553Z,9.10
2018-11-26T00:55:40.741Z,8.90
2018-11-26T00:58:08.435Z,8.70
2018-11-26T01:00:36.033Z,8.60
2018-11-26T01:03:03.146Z,8.60
2018-11-26T01:05:32.015Z,8.80
2018-11-26T01:08:03.326Z,9.10
2018-11-26T01:10:32.131Z,9.10
2018-11-26T01:12:59.591Z,9.30
2018-11-26T01:15:26.050Z,9.30
2018-11-26T01:17:53.471Z,9.30
2018-11-26T01:20:20.219Z,9.40
2018-11-26T01:22:47.915Z,9.30
2018-11-26T01:25:15.341Z,9.50
2018-11-26T01:30:41.331Z,9.70
2018-11-26T01:33:14.797Z,9.80
2018-11-26T01:35:44.862Z,9.80
2018-11-26T01:38:22.322Z,9.60
2018-11-26T01:43:35.797Z,8.80
2018-11-26T01:46:04.701Z,8.50
2018-11-26T01:48:33.631Z,8.50
2018-11-26T01:51:01.727Z,8.80
2018-11-26T01:53:29.130Z,8.80
2018-11-26T01:55:55.896Z,8.80
2018-11-26T01:58:26.058Z,8.60
2018-11-26T02:00:54.715Z,8.50
2018-11-26T02:08:54.353Z,9.10
2018-11-26T02:11:21.786Z,9.20
2018-11-26T02:16:35.212Z,8.90
2018-11-26T02:19:02.553Z,9.00
2018-11-26T02:21:30.682Z,9.00
2018-11-26T02:23:57.163Z,8.80
2018-11-26T02:26:23.623Z,8.80
2018-11-26T02:34:29.251Z,9.20
2018-11-26T02:36:57.414Z,9.40
2018-11-26T02:39:28.171Z,9.40
2018-11-26T02:41:59.815Z,9.20
2018-11-26T02:47:17.013Z,9.30
2018-11-26T02:49:45.082Z,9.30
2018-11-26T02:52:14.826Z,8.90
2018-11-26T02:57:28.578Z,8.80
2018-11-26T02:59:59.424Z,9.30
2018-11-26T03:05:15.149Z,9.50
2018-11-26T03:07:43.287Z,9.50
2018-11-26T03:10:10.543Z,9.40
2018-11-26T03:12:40.085Z,9.40
2018-11-26T03:15:08.273Z,9.60
2018-11-26T03:17:39.384Z,9.50
2018-11-26T03:22:52.423Z,8.80
2018-11-26T03:25:18.894Z,8.60
2018-11-26T03:27:45.356Z,8.60
2018-11-26T03:30:16.251Z,8.70
2018-11-26T03:32:43.937Z,9.10
2018-11-26T03:35:11.670Z,9.20
2018-11-26T03:37:38.369Z,9.40
2018-11-26T03:40:04.845Z,9.50
2018-11-26T03:42:31.562Z,9.60
2018-11-26T03:44:59.015Z,9.50
2018-11-26T03:47:27.293Z,9.60
2018-11-26T03:49:54.742Z,9.60
2018-11-26T03:52:23.867Z,9.40
2018-11-26T03:54:55.119Z,9.40
2018-11-26T03:57:21.546Z,9.40
2018-11-26T03:59:59.003Z,9.40
2018-11-26T04:02:30.602Z,9.40
2018-11-26T04:04:58.011Z,9.40
2018-11-26T04:07:26.425Z,9.40
2018-11-26T04:09:53.895Z,9.50
2018-11-26T04:15:08.618Z,9.60
2018-11-26T04:17:35.047Z,9.60
2018-11-26T04:25:36.767Z,9.50
2018-11-26T04:30:52.592Z,9.70
2018-11-26T04:33:21.609Z,9.50
2018-11-26T04:38:37.239Z,9.50
2018-11-26T04:41:06.225Z,9.70
2018-11-26T04:43:34.712Z,9.70
2018-11-26T04:46:04.176Z,9.60
2018-11-26T04:48:33.495Z,9.50
2018-11-26T04:51:00.670Z,9.40
2018-11-26T04:53:29.321Z,9.40
2018-11-26T04:55:55.805Z,9.50
2018-11-26T04:58:23.479Z,9.30
2018-11-26T05:00:57.878Z,9.50
2018-11-26T05:03:27.379Z,9.50
2018-11-26T05:05:56.362Z,9.50
2018-11-26T05:08:22.757Z,9.60
2018-11-26T05:10:52.385Z,9.50
2018-11-26T05:16:08.308Z,9.40
2018-11-26T05:18:35.740Z,9.10
2018-11-26T05:21:02.178Z,9.10
2018-11-26T05:23:38.704Z,9.00
2018-11-26T05:26:06.153Z,9.00
2018-11-26T05:28:34.070Z,9.10
2018-11-26T05:33:50.311Z,9.10
2018-11-26T05:36:20.250Z,9.40
2018-11-26T05:38:51.050Z,9.20
2018-11-26T05:41:21.276Z,8.80
2018-11-26T05:44:06.069Z,9.20
2018-11-26T05:46:34.735Z,9.30
2018-11-26T05:49:03.148Z,9.40
2018-11-26T05:51:30.866Z,9.20
2018-11-26T05:54:01.500Z,9.20
2018-11-26T05:56:28.958Z,9.40
2018-11-26T05:58:58.059Z,9.50
2018-11-26T06:01:26.855Z,9.60
2018-11-26T06:03:55.661Z,9.40
2018-11-26T06:06:25.454Z,9.40
2018-11-26T06:08:52.628Z,9.30
2018-11-26T06:11:23.979Z,9.50
2018-11-26T06:13:52.184Z,9.50
2018-11-26T06:16:19.610Z,9.20
2018-11-26T06:18:50.473Z,9.20
2018-11-26T06:21:20.213Z,9.10
2018-11-26T06:23:50.830Z,8.90
2018-11-26T06:26:17.277Z,9.10
2018-11-26T06:28:43.757Z,9.10
2018-11-26T06:31:11.358Z,9.20
2018-11-26T06:33:41.792Z,9.30
2018-11-26T06:36:09.275Z,9.40
2018-11-26T06:38:36.741Z,9.50
2018-11-26T06:41:04.186Z,9.60
2018-11-26T06:43:30.733Z,9.50
2018-11-26T06:45:58.185Z,9.50
2018-11-26T06:48:29.008Z,9.60
2018-11-26T06:50:56.173Z,9.00
2018-11-26T06:53:23.588Z,8.80
2018-11-26T06:55:50.007Z,9.00
2018-11-26T07:01:05.151Z,9.20
2018-11-26T07:03:31.598Z,8.90
2018-11-26T07:06:01.040Z,8.70
2018-11-26T07:08:27.473Z,8.60
2018-11-26T07:10:58.102Z,8.90
2018-11-26T07:13:25.536Z,9.10
2018-11-26T07:15:56.090Z,9.20
2018-11-26T07:18:22.801Z,9.30
2018-11-26T07:20:56.607Z,9.40
2018-11-26T07:23:25.436Z,9.50
2018-11-26T07:25:52.135Z,9.60
2018-11-26T07:28:19.008Z,9.50
2018-11-26T07:30:46.451Z,8.90
2018-11-26T07:33:13.672Z,8.80
2018-11-26T07:35:41.117Z,8.60
2018-11-26T07:38:09.731Z,8.80
2018-11-26T07:40:36.622Z,8.90
2018-11-26T07:43:05.246Z,9.00
2018-11-26T07:45:32.912Z,9.00
2018-11-26T07:47:59.377Z,8.90
2018-11-26T07:50:25.800Z,8.90
2018-11-26T07:52:56.492Z,8.60
2018-11-26T07:55:26.052Z,8.60
2018-11-26T07:57:53.478Z,8.60
2018-11-26T08:03:08.469Z,8.80
2018-11-26T08:05:35.922Z,8.70
2018-11-26T08:08:07.502Z,8.20
2018-11-26T08:10:35.017Z,8.20
2018-11-26T08:13:04.105Z,8.40
2018-11-26T08:15:30.530Z,8.60
2018-11-26T08:17:59.537Z,8.80
2018-11-26T08:20:33.586Z,8.70
2018-11-26T08:23:04.461Z,8.70
2018-11-26T08:25:33.363Z,8.80
2018-11-26T08:27:59.902Z,8.80
2018-11-26T08:30:33.694Z,8.70
2018-11-26T08:33:02.822Z,8.80
2018-11-26T08:35:30.578Z,9.00
2018-11-26T08:37:57.003Z,8.90
2018-11-26T08:40:23.474Z,8.90
2018-11-26T08:42:54.259Z,8.90
2018-11-26T08:45:22.013Z,8.90
2018-11-26T08:47:50.580Z,8.60
2018-11-26T08:50:18.037Z,8.70
2018-11-26T08:52:46.605Z,8.60
2018-11-26T08:55:13.576Z,8.50
2018-11-26T08:57:40.041Z,8.50
2018-11-26T09:00:10.464Z,8.50
2018-11-26T09:05:24.365Z,7.70
2018-11-26T09:07:52.474Z,7.20
2018-11-26T09:10:19.924Z,7.00
2018-11-26T09:12:47.576Z,7.10
2018-11-26T09:18:03.867Z,7.70
2018-11-26T09:20:32.441Z,7.20
2018-11-26T09:22:59.164Z,7.50
2018-11-26T09:25:30.009Z,7.50
2018-11-26T09:30:43.132Z,7.30
2018-11-26T09:33:10.877Z,7.30
2018-11-26T09:35:37.620Z,7.50
2018-11-26T09:38:06.214Z,7.60
2018-11-26T09:43:22.141Z,7.30
2018-11-26T09:45:49.594Z,7.50
2018-11-26T09:48:16.013Z,7.30
2018-11-26T09:50:42.739Z,7.60
2018-11-26T09:53:10.186Z,7.30
2018-11-26T09:55:51.309Z,7.10
2018-11-26T09:58:20.773Z,7.60
2018-11-26T10:00:48.218Z,7.40
2018-11-26T10:03:19.087Z,7.20
2018-11-26T10:05:46.532Z,7.10
2018-11-26T10:08:14.241Z,7.00
2018-11-26T10:10:45.382Z,7.10
2018-11-26T10:13:12.725Z,7.10
2018-11-26T10:15:42.372Z,7.40
2018-11-26T10:20:58.118Z,7.60
2018-11-26T10:23:24.819Z,7.30
2018-11-26T10:28:42.033Z,7.30
2018-11-26T10:31:12.455Z,7.50
2018-11-26T10:33:40.993Z,7.60
2018-11-26T10:36:10.654Z,7.60
2018-11-26T10:38:37.314Z,7.20
2018-11-26T10:43:53.000Z,7.20
2018-11-26T10:46:21.711Z,7.00
2018-11-26T10:48:48.407Z,7.30
2018-11-26T10:51:15.907Z,7.80
2018-11-26T10:53:43.318Z,7.70
2018-11-26T10:56:14.351Z,7.30
2018-11-26T10:58:41.175Z,7.20
2018-11-26T11:01:08.694Z,7.50
2018-11-26T11:03:53.263Z,7.20
2018-11-26T11:09:09.414Z,7.30
2018-11-26T11:11:36.590Z,7.40
2018-11-26T11:14:03.023Z,7.60
2018-11-26T11:16:30.491Z,7.60
2018-11-26T11:19:01.798Z,7.20
2018-11-26T11:21:28.220Z,7.20
2018-11-26T11:23:55.643Z,7.20
2018-11-26T11:26:28.238Z,7.30
2018-11-26T11:28:54.467Z,7.60
2018-11-26T11:31:38.724Z,7.20
2018-11-26T11:34:05.443Z,7.00
2018-11-26T11:36:34.020Z,7.10
2018-11-26T11:39:01.465Z,7.20
2018-11-26T11:41:34.301Z,7.20
2018-11-26T11:44:01.779Z,7.30
2018-11-26T11:46:28.557Z,7.20
2018-11-26T11:48:57.345Z,7.30
2018-11-26T11:51:27.210Z,7.30
2018-11-26T11:53:54.639Z,7.40
2018-11-26T11:56:24.003Z,7.20
2018-11-26T11:58:53.931Z,7.20
2018-11-26T12:01:24.674Z,7.10
2018-11-26T12:03:51.918Z,7.20
2018-11-26T12:09:10.324Z,7.20
2018-11-26T12:11:41.204Z,7.20
2018-11-26T12:14:07.896Z,7.40
2018-11-26T12:16:37.748Z,7.30
2018-11-26T12:19:04.857Z,7.10
2018-11-26T12:21:32.351Z,7.30
2018-11-26T12:24:07.863Z,7.40
2018-11-26T12:26:46.109Z,6.90
2018-11-26T12:29:12.842Z,6.90
2018-11-26T12:31:39.587Z,7.10
2018-11-26T12:34:08.250Z,7.40
2018-11-26T12:39:07.742Z,7.50
2018-11-26T12:41:35.926Z,8.00
2018-11-26T12:44:04.916Z,8.00
2018-11-26T12:49:18.779Z,7.70
2018-11-26T12:51:45.474Z,7.50
2018-11-26T12:54:15.605Z,7.40
2018-11-26T12:56:45.825Z,7.80
2018-11-26T12:59:15.402Z,7.80
2018-11-26T13:01:44.482Z,7.20
2018-11-26T13:04:10.966Z,7.30
2018-11-26T13:06:40.643Z,7.60
2018-11-26T13:09:09.477Z,7.60
2018-11-26T13:14:27.494Z,7.80
2018-11-26T13:19:44.036Z,8.20
2018-11-26T13:22:13.510Z,8.20
2018-11-26T13:24:39.935Z,8.30
2018-11-26T13:27:23.392Z,8.10
2018-11-26T13:29:50.419Z,7.90
2018-11-26T13:32:17.883Z,7.70
2018-11-26T13:34:48.764Z,7.50
2018-11-26T13:37:15.389Z,7.60
2018-11-26T13:39:41.805Z,7.20
2018-11-26T13:42:12.504Z,7.20
2018-11-26T13:44:39.234Z,7.30
2018-11-26T13:48:26.608Z,7.30
2018-11-26T13:49:35.551Z,7.10
2018-11-26T13:52:03.255Z,7.20
2018-11-26T13:54:30.728Z,7.30
2018-11-26T13:57:01.371Z,7.60
2018-11-26T13:59:32.067Z,7.80
2018-11-26T14:02:02.769Z,7.50
2018-11-26T14:04:32.671Z,7.20
2018-11-26T14:07:01.157Z,7.20
2018-11-26T14:09:28.912Z,7.50
2018-11-26T14:11:55.702Z,7.40
2018-11-26T14:14:22.430Z,7.40
2018-11-26T14:19:36.486Z,7.50
2018-11-26T14:22:04.567Z,7.40
2018-11-26T14:24:32.041Z,7.50
2018-11-26T14:26:59.281Z,7.40
2018-11-26T14:29:26.592Z,7.20
2018-11-26T14:31:53.310Z,6.90
2018-11-26T14:34:23.538Z,7.10
2018-11-26T14:36:50.246Z,7.30
2018-11-26T14:39:37.178Z,7.30
2018-11-26T14:42:05.912Z,7.40
2018-11-26T14:44:33.366Z,6.90
2018-11-26T14:46:59.824Z,6.90
2018-11-26T14:49:29.252Z,6.60
2018-11-26T14:52:00.863Z,6.70
2018-11-26T14:54:30.426Z,6.70
2018-11-26T14:56:58.416Z,6.90
2018-11-26T14:59:36.258Z,6.90
2018-11-26T15:02:03.708Z,7.00
2018-11-26T15:04:32.498Z,7.00
2018-11-26T15:06:58.939Z,6.90
2018-11-26T15:09:26.390Z,6.90
2018-11-26T15:11:55.755Z,6.60
2018-11-26T15:14:22.406Z,6.70
2018-11-26T15:16:49.881Z,6.70
2018-11-26T15:19:20.522Z,6.20
2018-11-26T15:21:47.980Z,6.20
2018-11-26T15:24:20.380Z,6.20
2018-11-26T15:26:53.257Z,6.00
2018-11-26T15:32:07.047Z,6.10
2018-11-26T15:34:36.898Z,6.20
2018-11-26T15:37:04.445Z,6.40
2018-11-26T15:39:33.219Z,6.50
2018-11-26T15:42:00.671Z,6.70
2018-11-26T15:44:29.403Z,6.60
2018-11-26T15:46:57.132Z,6.80
2018-11-26T15:49:27.949Z,6.70
2018-11-26T15:51:57.913Z,6.60
2018-11-26T15:54:32.067Z,6.70
2018-11-26T15:56:59.537Z,6.90
2018-11-26T15:59:28.346Z,7.20
2018-11-26T16:01:58.369Z,6.80
2018-11-26T16:04:42.245Z,6.80
2018-11-26T16:07:11.889Z,6.80
2018-11-26T16:09:38.360Z,6.60
2018-11-26T16:12:11.284Z,6.80
2018-11-26T16:14:47.388Z,7.00
2018-11-26T16:17:14.839Z,7.00
2018-11-26T16:19:42.545Z,6.90
2018-11-26T16:22:11.680Z,6.50
2018-11-26T16:24:39.130Z,6.10
2018-11-26T16:27:09.707Z,6.10
2018-11-26T16:29:39.298Z,6.20
2018-11-26T16:32:06.759Z,6.10
2018-11-26T16:34:34.195Z,6.30
2018-11-26T16:37:03.163Z,6.40
2018-11-26T16:39:30.963Z,6.30
2018-11-26T16:41:58.912Z,6.30
2018-11-26T16:44:28.872Z,6.50
2018-11-26T16:47:05.518Z,6.60
2018-11-26T16:49:32.994Z,6.40
2018-11-26T16:52:02.796Z,6.30
2018-11-26T16:54:31.550Z,6.40
2018-11-26T16:59:55.458Z,6.10
2018-11-26T17:02:22.930Z,6.50
2018-11-26T17:04:51.741Z,6.40
2018-11-26T17:07:18.187Z,6.70
2018-11-26T17:09:46.522Z,6.30
2018-11-26T17:15:02.235Z,6.10
2018-11-26T17:17:31.175Z,5.90
2018-11-26T17:20:00.814Z,6.00
2018-11-26T17:22:29.098Z,6.20
2018-11-26T17:25:26.093Z,6.20
2018-11-26T17:27:53.008Z,6.60
2018-11-26T17:30:22.337Z,6.80
2018-11-26T17:32:49.804Z,6.80
2018-11-26T17:35:19.797Z,7.00
2018-11-26T17:37:49.969Z,7.10
2018-11-26T17:40:17.436Z,6.80
2018-11-26T17:42:44.854Z,6.60
2018-11-26T17:45:11.259Z,6.80
2018-11-26T17:47:37.705Z,6.80
2018-11-26T17:50:06.312Z,6.90
2018-11-26T17:52:37.267Z,7.20
2018-11-26T17:55:15.630Z,6.90
2018-11-26T17:57:43.732Z,6.80
2018-11-26T18:00:12.292Z,6.80
2018-11-26T18:02:42.156Z,6.90
2018-11-26T18:05:16.099Z,7.20
2018-11-26T18:07:46.711Z,7.10
2018-11-26T18:10:15.356Z,7.00
2018-11-26T18:12:44.748Z,7.00
2018-11-26T18:15:11.660Z,6.90
2018-11-26T18:17:38.873Z,6.90
2018-11-26T18:20:09.757Z,7.00
2018-11-26T18:22:37.523Z,7.10
2018-11-26T18:25:05.223Z,7.30
2018-11-26T18:27:32.268Z,7.50
2018-11-26T18:30:02.942Z,7.50
2018-11-26T18:32:33.622Z,7.60
2018-11-26T18:35:02.274Z,7.60
2018-11-26T18:37:29.728Z,7.20
2018-11-26T18:39:57.440Z,7.20
2018-11-26T18:42:26.279Z,7.00
2018-11-26T18:44:53.718Z,7.00
2018-11-26T18:47:21.195Z,7.20
2018-11-26T18:49:47.637Z,7.20
2018-11-26T18:52:17.098Z,7.10
2018-11-26T18:54:44.548Z,6.90
2018-11-26T18:57:11.230Z,7.20
2018-11-26T18:59:41.748Z,7.20
2018-11-26T19:02:08.181Z,7.30
2018-11-26T19:07:21.435Z,7.40
2018-11-26T19:09:48.388Z,7.50
2018-11-26T19:12:16.082Z,7.40
2018-11-26T19:17:31.644Z,7.10
2018-11-26T19:19:58.314Z,6.60
2018-11-26T19:22:25.788Z,6.70
2018-11-26T19:24:54.703Z,6.70
2018-11-26T19:27:24.309Z,6.90
2018-11-26T19:29:52.053Z,7.00
2018-11-26T19:35:06.548Z,7.10
2018-11-26T19:37:35.891Z,6.90
2018-11-26T19:40:19.636Z,6.70
2018-11-26T19:42:46.081Z,6.60
2018-11-26T19:45:15.812Z,6.50
2018-11-26T19:47:43.248Z,6.60
2018-11-26T19:50:11.425Z,6.70
2018-11-26T19:52:38.204Z,6.20
2018-11-26T19:55:07.393Z,6.50
2018-11-26T19:57:34.873Z,6.80
2018-11-26T20:00:01.568Z,6.90
2018-11-26T20:02:28.995Z,6.60
2018-11-26T20:04:56.449Z,6.70
2018-11-26T20:07:25.537Z,6.70
2018-11-26T20:09:52.969Z,7.00
2018-11-26T20:12:22.529Z,6.60
2018-11-26T20:14:50.093Z,6.60
2018-11-26T20:17:17.555Z,6.60
2018-11-26T20:19:46.242Z,6.70
2018-11-26T20:22:13.328Z,6.90
2018-11-26T20:24:40.783Z,6.60
2018-11-26T20:27:08.250Z,6.80
2018-11-26T20:29:45.966Z,7.00
2018-11-26T20:32:16.315Z,7.00
2018-11-26T20:34:44.593Z,6.90
2018-11-26T20:37:11.859Z,6.80
2018-11-26T20:39:38.315Z,7.10
2018-11-26T20:42:16.444Z,7.50
2018-11-26T20:44:46.255Z,7.30
2018-11-26T20:47:13.696Z,7.00
2018-11-26T20:49:42.512Z,7.10
2018-11-26T20:52:11.311Z,7.40
2018-11-26T20:54:41.264Z,7.50
2018-11-26T20:57:08.722Z,7.60
2018-11-26T20:59:35.538Z,7.50
2018-11-26T21:02:02.983Z,7.40
2018-11-26T21:04:30.779Z,7.30
2018-11-26T21:07:01.242Z,7.40
2018-11-26T21:09:30.173Z,7.20
2018-11-26T21:14:43.458Z,7.40
2018-11-26T21:17:10.123Z,7.40
2018-11-26T21:19:40.089Z,7.40
2018-11-26T21:22:07.572Z,7.20
2018-11-26T21:24:36.280Z,7.10
2018-11-26T21:27:04.344Z,7.50
2018-11-26T21:29:32.626Z,7.60
2018-11-26T21:34:47.272Z,7.30
2018-11-26T21:37:13.704Z,7.50
2018-11-26T21:42:29.426Z,7.40
2018-11-26T21:44:59.690Z,7.60
2018-11-26T21:47:29.160Z,7.40
2018-11-26T21:49:55.885Z,7.40
2018-11-26T21:52:24.552Z,7.50
2018-11-26T21:54:51.008Z,7.90
2018-11-26T21:57:18.924Z,8.00
2018-11-26T21:59:47.875Z,8.00
2018-11-26T22:02:14.770Z,8.20
2018-11-26T22:07:32.414Z,8.20
2018-11-26T22:10:01.920Z,8.30
2018-11-26T22:12:32.470Z,8.20
2018-11-26T22:15:00.379Z,8.20
2018-11-26T22:17:29.845Z,8.20
2018-11-26T22:20:00.763Z,8.30
2018-11-26T22:25:17.287Z,8.10
2018-11-26T22:27:45.500Z,8.10
2018-11-26T22:30:12.979Z,7.70
2018-11-26T22:32:41.755Z,7.80
2018-11-26T22:35:08.423Z,7.60
2018-11-26T22:37:40.728Z,7.50
2018-11-26T22:42:55.421Z,7.40
2018-11-26T22:45:23.157Z,7.00
2018-11-26T22:47:54.877Z,7.00
2018-11-26T22:50:22.565Z,7.00
2018-11-26T22:58:24.139Z,6.50
2018-11-26T23:00:50.603Z,6.80
2018-11-26T23:03:18.837Z,7.00
2018-11-26T23:05:52.212Z,7.20
2018-11-26T23:08:19.904Z,7.00
2018-11-26T23:10:50.996Z,7.30
2018-11-26T23:13:19.184Z,7.40
2018-11-26T23:15:49.113Z,7.50
2018-11-26T23:21:04.345Z,7.50
2018-11-26T23:23:32.533Z,7.20
2018-11-26T23:26:01.705Z,6.80
2018-11-26T23:28:29.558Z,6.80
2018-11-26T23:31:00.137Z,6.80
2018-11-26T23:33:29.018Z,6.70
2018-11-26T23:35:56.471Z,6.90
2018-11-26T23:38:23.007Z,7.00
2018-11-26T23:40:50.154Z,6.80
2018-11-26T23:43:16.598Z,6.60
2018-11-26T23:45:47.437Z,6.60
2018-11-26T23:48:15.484Z,6.50
2018-11-26T23:51:00.544Z,6.50
2018-11-26T23:53:31.417Z,6.60
2018-11-26T23:56:01.923Z,6.80
